Time;durP1;ratioP1;P1;durP2;ratioP2;P2;SDS_P1;SDS_P2;PMS_P1;PMS_P2;Temp;Humidity;BMP_temperature;BMP_pressure;BME280_temperature;BME280_humidity;BME280_pressure;Samples;Min_cycle;Max_cycle;Signal;HPM_P1;HPM_P2
2022/02/24 00:00:21;;;;;;;;;;;9.30;99.90;;;;;;5046036;28;20456;-84
2022/02/24 00:02:46;;;;;;;;;;;9.20;99.90;;;;;;5041712;28;19959;-84
2022/02/24 00:05:12;;;;;;;;;;;9.30;99.90;;;;;;5044520;28;19922;-84
2022/02/24 00:07:38;;;;;;;;;;;9.30;99.90;;;;;;5046719;28;21585;-85
2022/02/24 00:10:05;;;;;;;;;;;9.30;99.90;;;;;;5047349;28;19992;-84
2022/02/24 00:12:30;;;;;;;;;;;9.30;99.90;;;;;;5068728;28;19928;-84
2022/02/24 00:14:56;;;;;;;;;;;9.30;99.90;;;;;;5048006;28;19920;-84
2022/02/24 00:17:22;;;;;;;;;;;9.30;99.90;;;;;;5044530;28;19928;-84
2022/02/24 00:19:48;;;;;;;;;;;9.30;99.90;;;;;;5067510;28;19913;-84
2022/02/24 00:22:13;;;;;;;;;;;9.30;99.90;;;;;;5046059;28;20412;-84
2022/02/24 00:24:39;;;;;;;;;;;9.30;99.90;;;;;;5050465;28;19982;-84
2022/02/24 00:27:04;;;;;;;;;;;9.30;99.90;;;;;;5051832;28;19920;-84
2022/02/24 00:29:29;;;;;;;;;;;9.30;99.90;;;;;;5075459;28;19966;-85
2022/02/24 00:31:55;;;;;;;;;;;9.30;99.90;;;;;;5050811;28;20376;-84
2022/02/24 00:34:23;;;;;;;;;;;9.30;99.90;;;;;;5051006;28;20011;-84
2022/02/24 00:36:52;;;;;;;;;;;9.30;99.90;;;;;;5050151;28;19913;-84
2022/02/24 00:39:18;;;;;;;;;;;9.30;99.90;;;;;;5046049;28;19936;-84
2022/02/24 00:41:43;;;;;;;;;;;9.30;99.90;;;;;;5069886;28;19916;-84
2022/02/24 00:44:09;;;;;;;;;;;9.30;99.90;;;;;;5057156;28;19971;-84
2022/02/24 00:46:34;;;;;;;;;;;9.30;99.90;;;;;;5046083;28;19913;-84
2022/02/24 00:49:00;;;;;;;;;;;9.30;99.90;;;;;;5047108;28;20359;-84
2022/02/24 00:51:25;;;;;;;;;;;9.30;99.90;;;;;;5051571;28;19913;-84
2022/02/24 00:53:51;;;;;;;;;;;9.30;99.90;;;;;;5047696;28;19913;-84
2022/02/24 00:56:16;;;;;;;;;;;9.30;99.90;;;;;;5049649;28;19959;-84
2022/02/24 00:58:42;;;;;;;;;;;9.30;99.90;;;;;;5054799;28;19987;-84
2022/02/24 01:01:07;;;;;;;;;;;9.20;99.90;;;;;;5053795;28;19913;-83
2022/02/24 01:03:33;;;;;;;;;;;9.20;99.90;;;;;;5050144;28;20524;-83
2022/02/24 01:05:59;;;;;;;;;;;9.20;99.90;;;;;;5055276;28;19913;-84
2022/02/24 01:08:24;;;;;;;;;;;9.20;99.90;;;;;;5058199;28;19917;-84
2022/02/24 01:10:50;;;;;;;;;;;9.20;99.90;;;;;;5065858;28;20345;-84
2022/02/24 01:13:15;;;;;;;;;;;9.20;99.90;;;;;;5061038;28;19920;-84
2022/02/24 01:15:42;;;;;;;;;;;9.20;99.90;;;;;;5051428;28;19952;-83
2022/02/24 01:18:08;;;;;;;;;;;9.20;99.90;;;;;;5061981;28;19923;-84
2022/02/24 01:20:33;;;;;;;;;;;9.20;99.90;;;;;;5056643;28;19913;-84
2022/02/24 01:22:59;;;;;;;;;;;9.20;99.90;;;;;;5060727;28;19920;-84
2022/02/24 01:25:24;;;;;;;;;;;9.30;99.90;;;;;;5067906;28;19913;-84
2022/02/24 01:27:50;;;;;;;;;;;9.30;99.90;;;;;;5060767;28;19913;-83
2022/02/24 01:30:15;;;;;;;;;;;9.20;99.90;;;;;;5053355;28;20305;-83
2022/02/24 01:32:41;;;;;;;;;;;9.20;99.90;;;;;;5056977;28;19916;-84
2022/02/24 01:35:07;;;;;;;;;;;9.20;99.90;;;;;;5054126;28;19913;-83
2022/02/24 01:37:32;;;;;;;;;;;9.20;99.90;;;;;;5054414;28;20368;-84
2022/02/24 01:39:58;;;;;;;;;;;9.20;99.90;;;;;;5059572;28;19917;-83
2022/02/24 01:42:23;;;;;;;;;;;9.20;99.90;;;;;;5051862;28;19928;-83
2022/02/24 01:44:49;;;;;;;;;;;9.20;99.90;;;;;;5053382;28;19921;-83
2022/02/24 01:47:14;;;;;;;;;;;9.20;99.90;;;;;;5054439;28;19909;-83
2022/02/24 01:49:40;;;;;;;;;;;9.20;99.90;;;;;;5053817;28;20027;-84
2022/02/24 01:52:06;;;;;;;;;;;9.20;99.90;;;;;;5058686;28;20000;-84
2022/02/24 01:54:34;;;;;;;;;;;9.20;99.90;;;;;;5058808;28;19912;-84
2022/02/24 01:57:00;;;;;;;;;;;9.20;99.90;;;;;;5050100;28;19943;-84
2022/02/24 01:59:26;;;;;;;;;;;9.20;99.90;;;;;;5058303;28;20349;-84
2022/02/24 02:01:51;;;;;;;;;;;9.20;99.90;;;;;;5043582;28;19984;-84
2022/02/24 02:04:17;;;;;;;;;;;9.20;99.90;;;;;;5052816;28;19968;-83
2022/02/24 02:06:42;;;;;;;;;;;9.20;99.90;;;;;;5058797;28;19924;-83
2022/02/24 02:09:08;;;;;;;;;;;9.20;99.90;;;;;;5051699;28;20305;-84
2022/02/24 02:11:34;;;;;;;;;;;9.20;99.90;;;;;;5055828;28;20490;-84
2022/02/24 02:13:59;;;;;;;;;;;9.20;99.90;;;;;;5055965;28;19916;-84
2022/02/24 02:16:25;;;;;;;;;;;9.20;99.90;;;;;;5059535;28;19955;-84
2022/02/24 02:18:50;;;;;;;;;;;9.20;99.90;;;;;;5052216;28;19913;-83
2022/02/24 02:21:16;;;;;;;;;;;9.20;99.90;;;;;;5056088;28;19923;-83
2022/02/24 02:23:41;;;;;;;;;;;9.20;99.90;;;;;;5056153;28;19912;-84
2022/02/24 02:26:07;;;;;;;;;;;9.10;99.90;;;;;;5076459;28;19948;-84
2022/02/24 02:28:33;;;;;;;;;;;9.10;99.90;;;;;;5059904;28;19913;-84
2022/02/24 02:30:58;;;;;;;;;;;9.10;99.90;;;;;;5057792;28;19921;-84
2022/02/24 02:33:24;;;;;;;;;;;9.10;99.90;;;;;;5053070;28;20301;-84
2022/02/24 02:35:49;;;;;;;;;;;9.10;99.90;;;;;;5065689;28;20327;-84
2022/02/24 02:38:15;;;;;;;;;;;9.10;99.90;;;;;;5054016;28;19919;-84
2022/02/24 02:40:40;;;;;;;;;;;9.10;99.90;;;;;;5056721;28;19921;-83
2022/02/24 02:43:09;;;;;;;;;;;9.10;99.90;;;;;;5058894;28;19924;-84
2022/02/24 02:45:35;;;;;;;;;;;9.10;99.90;;;;;;5059547;28;19963;-84
2022/02/24 02:48:02;;;;;;;;;;;9.10;99.90;;;;;;5054465;28;19913;-84
2022/02/24 02:50:28;;;;;;;;;;;9.10;99.90;;;;;;5053629;28;19916;-84
2022/02/24 02:52:54;;;;;;;;;;;9.10;99.90;;;;;;5054405;28;19917;-84
2022/02/24 02:55:19;;;;;;;;;;;9.10;99.90;;;;;;5053332;28;19913;-83
2022/02/24 02:57:45;;;;;;;;;;;9.10;99.90;;;;;;5056934;28;19919;-86
2022/02/24 03:00:12;;;;;;;;;;;9.10;99.90;;;;;;5051458;28;19913;-84
2022/02/24 03:02:37;;;;;;;;;;;9.10;99.90;;;;;;5054649;28;19971;-84
2022/02/24 03:05:03;;;;;;;;;;;9.10;99.90;;;;;;5055350;28;21234;-84
2022/02/24 03:07:29;;;;;;;;;;;9.10;99.90;;;;;;5052723;28;19948;-84
2022/02/24 03:09:55;;;;;;;;;;;9.10;99.90;;;;;;5058237;28;19913;-84
2022/02/24 03:12:20;;;;;;;;;;;9.10;99.90;;;;;;5051667;28;19913;-84
2022/02/24 03:14:46;;;;;;;;;;;9.10;99.90;;;;;;5074310;28;20402;-83
2022/02/24 03:17:12;;;;;;;;;;;9.10;99.90;;;;;;5059576;28;20011;-84
2022/02/24 03:19:37;;;;;;;;;;;9.10;99.90;;;;;;5052851;28;19948;-84
2022/02/24 03:22:06;;;;;;;;;;;9.10;99.90;;;;;;5057307;28;19912;-84
2022/02/24 03:24:31;;;;;;;;;;;9.10;99.90;;;;;;5060286;28;19913;-83
2022/02/24 03:26:57;;;;;;;;;;;9.10;99.90;;;;;;5061000;28;19913;-83
2022/02/24 03:29:22;;;;;;;;;;;9.10;99.90;;;;;;5047704;28;20385;-84
2022/02/24 03:31:48;;;;;;;;;;;9.10;99.90;;;;;;5050032;28;19917;-83
2022/02/24 03:34:14;;;;;;;;;;;9.10;99.90;;;;;;5058254;28;19913;-84
2022/02/24 03:36:39;;;;;;;;;;;9.10;99.90;;;;;;5061627;28;19944;-84
2022/02/24 03:39:05;;;;;;;;;;;9.10;99.90;;;;;;5075029;28;20411;-84
2022/02/24 03:41:31;;;;;;;;;;;9.10;99.90;;;;;;5058583;28;19912;-84
2022/02/24 03:43:56;;;;;;;;;;;9.10;99.90;;;;;;5058358;28;19956;-83
2022/02/24 03:46:21;;;;;;;;;;;9.10;99.90;;;;;;5060156;28;19909;-82
2022/02/24 03:48:47;;;;;;;;;;;9.10;99.90;;;;;;5060732;28;19994;-83
2022/02/24 03:51:13;;;;;;;;;;;9.10;99.90;;;;;;5049912;28;19921;-84
2022/02/24 03:53:38;;;;;;;;;;;9.10;99.90;;;;;;5052222;28;19933;-84
2022/02/24 03:56:04;;;;;;;;;;;9.10;99.90;;;;;;5057923;28;20090;-83
2022/02/24 03:58:29;;;;;;;;;;;9.10;99.90;;;;;;5058308;28;19986;-84
2022/02/24 04:00:55;;;;;;;;;;;9.00;99.90;;;;;;5051638;28;19921;-84
2022/02/24 04:03:20;;;;;;;;;;;9.00;99.90;;;;;;5057702;28;19927;-83
2022/02/24 04:05:46;;;;;;;;;;;9.00;99.90;;;;;;5057989;28;19952;-83
2022/02/24 04:08:11;;;;;;;;;;;9.00;99.90;;;;;;5060782;28;19920;-84
2022/02/24 04:10:37;;;;;;;;;;;9.00;99.90;;;;;;5055948;28;19917;-83
2022/02/24 04:13:02;;;;;;;;;;;9.00;99.90;;;;;;5058088;28;19913;-84
2022/02/24 04:15:28;;;;;;;;;;;9.00;99.90;;;;;;5059295;28;19963;-83
2022/02/24 04:17:53;;;;;;;;;;;9.00;99.90;;;;;;5074647;28;19928;-83
2022/02/24 04:20:19;;;;;;;;;;;9.00;99.90;;;;;;5054650;28;19913;-84
2022/02/24 04:22:44;;;;;;;;;;;9.00;99.90;;;;;;5055501;28;19937;-84
2022/02/24 04:25:10;;;;;;;;;;;9.00;99.90;;;;;;5057086;28;20412;-84
2022/02/24 04:27:35;;;;;;;;;;;9.00;99.90;;;;;;5057705;28;19912;-84
2022/02/24 04:30:01;;;;;;;;;;;9.00;99.90;;;;;;5056604;28;19994;-84
2022/02/24 04:32:26;;;;;;;;;;;9.00;99.90;;;;;;5056538;28;19913;-84
2022/02/24 04:34:52;;;;;;;;;;;9.00;99.90;;;;;;5052245;28;19912;-84
2022/02/24 04:37:17;;;;;;;;;;;9.00;99.90;;;;;;5058989;28;19912;-84
2022/02/24 04:39:42;;;;;;;;;;;9.00;99.90;;;;;;5059036;28;20043;-85
2022/02/24 04:42:08;;;;;;;;;;;9.00;99.90;;;;;;5057359;28;19966;-84
2022/02/24 04:44:34;;;;;;;;;;;8.90;99.90;;;;;;5063839;28;19996;-83
2022/02/24 04:46:59;;;;;;;;;;;8.90;99.90;;;;;;5060954;28;20450;-83
2022/02/24 04:49:25;;;;;;;;;;;8.90;99.90;;;;;;5060172;28;19928;-83
2022/02/24 04:51:51;;;;;;;;;;;9.00;99.90;;;;;;5059042;28;20266;-83
2022/02/24 04:54:16;;;;;;;;;;;9.00;99.90;;;;;;5054317;28;19920;-83
2022/02/24 04:56:42;;;;;;;;;;;8.90;99.90;;;;;;5064450;28;19963;-83
2022/02/24 04:59:07;;;;;;;;;;;8.90;99.90;;;;;;5061457;28;19913;-84
2022/02/24 05:01:33;;;;;;;;;;;9.00;99.90;;;;;;5062588;28;19938;-83
2022/02/24 05:03:58;;;;;;;;;;;8.90;99.90;;;;;;5061797;28;20349;-83
2022/02/24 05:06:23;;;;;;;;;;;8.90;99.90;;;;;;5060301;28;19920;-83
2022/02/24 05:08:50;;;;;;;;;;;8.90;99.90;;;;;;5061775;28;20381;-83
2022/02/24 05:11:15;;;;;;;;;;;8.90;99.90;;;;;;5053155;28;19920;-84
2022/02/24 05:13:41;;;;;;;;;;;8.90;99.90;;;;;;5062214;28;19912;-84
2022/02/24 05:16:06;;;;;;;;;;;8.90;99.90;;;;;;5058126;28;19913;-83
2022/02/24 05:18:32;;;;;;;;;;;8.90;99.90;;;;;;5051288;28;19988;-83
2022/02/24 05:20:57;;;;;;;;;;;8.90;99.90;;;;;;5055540;28;19919;-83
2022/02/24 05:23:23;;;;;;;;;;;8.90;99.90;;;;;;5057824;28;20322;-83
2022/02/24 05:25:48;;;;;;;;;;;8.80;99.90;;;;;;5052075;28;19920;-83
2022/02/24 05:28:13;;;;;;;;;;;8.80;99.90;;;;;;5073861;28;20300;-83
2022/02/24 05:30:39;;;;;;;;;;;8.80;99.90;;;;;;5059202;28;19913;-83
2022/02/24 05:33:05;;;;;;;;;;;8.70;99.90;;;;;;5057729;28;19913;-83
2022/02/24 05:35:30;;;;;;;;;;;8.70;99.90;;;;;;5058670;28;19928;-84
2022/02/24 05:37:56;;;;;;;;;;;8.70;99.90;;;;;;5055536;28;19935;-83
2022/02/24 05:40:22;;;;;;;;;;;8.70;99.90;;;;;;5057372;28;19921;-83
2022/02/24 05:42:47;;;;;;;;;;;8.60;99.90;;;;;;5057119;28;19940;-84
2022/02/24 05:45:13;;;;;;;;;;;8.60;99.90;;;;;;5058277;28;20004;-83
2022/02/24 05:47:39;;;;;;;;;;;8.60;99.90;;;;;;5056307;28;19920;-84
2022/02/24 05:50:07;;;;;;;;;;;8.60;99.90;;;;;;5057179;28;19978;-84
2022/02/24 05:52:33;;;;;;;;;;;8.60;99.90;;;;;;5050992;28;19920;-84
2022/02/24 05:54:58;;;;;;;;;;;8.60;99.90;;;;;;5053377;28;19913;-83
2022/02/24 05:57:24;;;;;;;;;;;8.60;99.90;;;;;;5056388;28;19913;-84
2022/02/24 05:59:49;;;;;;;;;;;8.60;99.90;;;;;;5057100;28;19935;-84
2022/02/24 06:02:15;;;;;;;;;;;8.50;99.90;;;;;;5055556;28;19932;-83
2022/02/24 06:04:41;;;;;;;;;;;8.50;99.90;;;;;;5057766;28;19913;-83
2022/02/24 06:07:06;;;;;;;;;;;8.50;99.90;;;;;;5058833;28;20285;-83
2022/02/24 06:09:32;;;;;;;;;;;8.50;99.90;;;;;;5044572;28;19984;-83
2022/02/24 06:11:57;;;;;;;;;;;8.50;99.90;;;;;;5055973;28;19912;-84
2022/02/24 06:14:22;;;;;;;;;;;8.50;99.90;;;;;;5050728;28;19920;-83
2022/02/24 06:16:48;;;;;;;;;;;8.50;99.90;;;;;;5059090;28;19952;-82
2022/02/24 06:19:13;;;;;;;;;;;8.50;99.90;;;;;;5055662;28;19921;-85
2022/02/24 06:21:39;;;;;;;;;;;8.50;99.90;;;;;;5055284;28;20356;-85
2022/02/24 06:24:05;;;;;;;;;;;8.50;99.90;;;;;;5049498;28;20293;-83
2022/02/24 06:26:30;;;;;;;;;;;8.50;99.90;;;;;;5048202;28;19912;-83
2022/02/24 06:28:55;;;;;;;;;;;8.50;99.90;;;;;;5053249;28;20027;-82
2022/02/24 06:31:21;;;;;;;;;;;8.50;99.90;;;;;;5058553;28;19933;-83
2022/02/24 06:33:46;;;;;;;;;;;8.50;99.90;;;;;;5045415;28;19994;-83
2022/02/24 06:36:12;;;;;;;;;;;8.50;99.90;;;;;;5055426;28;19992;-84
2022/02/24 06:38:37;;;;;;;;;;;8.50;99.90;;;;;;5055135;28;19912;-84
2022/02/24 06:41:03;;;;;;;;;;;8.60;99.90;;;;;;5052378;28;20303;-84
2022/02/24 06:43:28;;;;;;;;;;;8.70;99.90;;;;;;5051024;28;19925;-84
2022/02/24 06:45:54;;;;;;;;;;;8.70;99.90;;;;;;5051618;28;19917;-84
2022/02/24 06:48:21;;;;;;;;;;;8.80;99.90;;;;;;5048369;28;19974;-84
2022/02/24 06:50:49;;;;;;;;;;;8.80;99.90;;;;;;5052472;28;19984;-84
2022/02/24 06:53:14;;;;;;;;;;;8.90;99.90;;;;;;5048764;28;19920;-85
2022/02/24 06:55:40;;;;;;;;;;;8.90;99.90;;;;;;5049433;28;19913;-84
2022/02/24 06:58:05;;;;;;;;;;;8.90;99.90;;;;;;5051472;28;19913;-84
2022/02/24 07:00:31;;;;;;;;;;;9.00;99.90;;;;;;5054761;28;19916;-84
2022/02/24 07:02:58;;;;;;;;;;;9.00;99.90;;;;;;5032404;28;22055;-84
2022/02/24 07:05:23;;;;;;;;;;;9.00;99.90;;;;;;5051036;28;19964;-82
2022/02/24 07:07:49;;;;;;;;;;;9.00;99.90;;;;;;5054997;28;19973;-84
2022/02/24 07:10:15;;;;;;;;;;;9.00;99.90;;;;;;5050523;28;19923;-84
2022/02/24 07:12:44;;;;;;;;;;;9.10;99.90;;;;;;5061281;28;19918;-85
2022/02/24 07:15:10;;;;;;;;;;;9.10;99.90;;;;;;5047127;28;19913;-84
2022/02/24 07:17:40;;;;;;;;;;;9.20;99.90;;;;;;5040849;28;19919;-84
2022/02/24 07:20:06;;;;;;;;;;;9.10;99.90;;;;;;5049774;28;19960;-84
2022/02/24 07:22:31;;;;;;;;;;;9.20;99.90;;;;;;5038500;28;19912;-84
2022/02/24 07:24:57;;;;;;;;;;;9.20;99.90;;;;;;5053660;28;19999;-84
2022/02/24 07:27:22;;;;;;;;;;;9.30;99.90;;;;;;5044766;28;19917;-84
2022/02/24 07:29:48;;;;;;;;;;;9.40;99.90;;;;;;5049041;28;20392;-83
2022/02/24 07:32:13;;;;;;;;;;;9.40;99.90;;;;;;5049236;28;19964;-83
2022/02/24 07:34:39;;;;;;;;;;;9.50;99.90;;;;;;5048079;28;19913;-83
2022/02/24 07:37:04;;;;;;;;;;;9.50;99.90;;;;;;5055085;28;19909;-84
2022/02/24 07:39:30;;;;;;;;;;;9.50;99.90;;;;;;5053248;28;19947;-84
2022/02/24 07:41:55;;;;;;;;;;;9.40;99.90;;;;;;5051996;28;19966;-83
2022/02/24 07:44:21;;;;;;;;;;;9.40;99.90;;;;;;5049055;28;19913;-84
2022/02/24 07:46:46;;;;;;;;;;;9.40;99.90;;;;;;5051279;28;19909;-84
2022/02/24 07:49:12;;;;;;;;;;;9.40;99.90;;;;;;5048539;28;19923;-85
2022/02/24 07:51:37;;;;;;;;;;;9.50;99.90;;;;;;5055058;28;19908;-84
2022/02/24 07:54:02;;;;;;;;;;;9.60;99.90;;;;;;5053050;28;19921;-84
2022/02/24 07:56:29;;;;;;;;;;;9.60;99.90;;;;;;5046256;28;19913;-84
2022/02/24 07:58:55;;;;;;;;;;;9.70;99.90;;;;;;5052684;28;19913;-84
2022/02/24 08:01:23;;;;;;;;;;;9.80;99.90;;;;;;5053550;28;19931;-84
2022/02/24 08:03:49;;;;;;;;;;;9.70;99.90;;;;;;5069305;28;19913;-84
2022/02/24 08:06:15;;;;;;;;;;;9.70;99.90;;;;;;5052658;28;19935;-84
2022/02/24 08:08:40;;;;;;;;;;;9.60;99.90;;;;;;5046889;28;19912;-84
2022/02/24 08:11:06;;;;;;;;;;;9.60;99.90;;;;;;5052784;28;19913;-84
2022/02/24 08:13:31;;;;;;;;;;;9.60;99.90;;;;;;5050622;28;19979;-85
2022/02/24 08:15:57;;;;;;;;;;;9.60;99.90;;;;;;5052149;28;19981;-85
2022/02/24 08:18:22;;;;;;;;;;;9.60;99.90;;;;;;5070585;28;19920;-85
2022/02/24 08:20:48;;;;;;;;;;;9.60;99.90;;;;;;5053028;28;19917;-84
2022/02/24 08:23:15;;;;;;;;;;;9.60;99.90;;;;;;5050677;28;20302;-85
2022/02/24 08:25:40;;;;;;;;;;;9.60;99.90;;;;;;5050614;28;19936;-84
2022/02/24 08:28:06;;;;;;;;;;;9.60;99.90;;;;;;5054954;28;19921;-83
2022/02/24 08:30:32;;;;;;;;;;;9.60;99.90;;;;;;5056100;28;19925;-84
2022/02/24 08:32:57;;;;;;;;;;;9.60;99.90;;;;;;5054206;28;19913;-84
2022/02/24 08:35:26;;;;;;;;;;;9.60;99.90;;;;;;5057403;28;19920;-84
2022/02/24 08:37:51;;;;;;;;;;;9.60;99.90;;;;;;5058264;28;20406;-85
2022/02/24 08:40:18;;;;;;;;;;;9.50;99.90;;;;;;5056068;28;19909;-84
2022/02/24 08:42:43;;;;;;;;;;;9.50;99.90;;;;;;5052252;28;19924;-85
2022/02/24 08:45:09;;;;;;;;;;;9.60;99.90;;;;;;5054773;28;19912;-84
2022/02/24 08:47:35;;;;;;;;;;;9.70;99.90;;;;;;5048577;28;19919;-84
2022/02/24 08:50:01;;;;;;;;;;;9.70;99.90;;;;;;5067183;28;20364;-86
2022/02/24 08:52:27;;;;;;;;;;;9.70;99.90;;;;;;5055199;28;19913;-85
2022/02/24 08:54:53;;;;;;;;;;;9.70;99.90;;;;;;5057125;28;19924;-84
2022/02/24 08:57:18;;;;;;;;;;;9.80;99.90;;;;;;5051690;28;19934;-84
2022/02/24 08:59:44;;;;;;;;;;;9.90;99.90;;;;;;5053052;28;19909;-85
2022/02/24 09:02:09;;;;;;;;;;;10.00;99.90;;;;;;5052700;28;19913;-85
2022/02/24 09:04:35;;;;;;;;;;;10.00;99.90;;;;;;5054530;28;19923;-84
2022/02/24 09:07:00;;;;;;;;;;;10.00;99.90;;;;;;5056414;28;19912;-86
2022/02/24 09:09:26;;;;;;;;;;;10.00;99.90;;;;;;5052903;28;20935;-84
2022/02/24 09:11:51;;;;;;;;;;;10.00;99.90;;;;;;5052765;28;19916;-85
2022/02/24 09:14:17;;;;;;;;;;;10.10;99.90;;;;;;5052393;28;19917;-85
2022/02/24 09:16:43;;;;;;;;;;;10.30;99.90;;;;;;5050261;28;20392;-85
2022/02/24 09:19:09;;;;;;;;;;;10.70;99.90;;;;;;5058412;28;19913;-85
2022/02/24 09:21:35;;;;;;;;;;;10.90;99.90;;;;;;5056546;28;19958;-85
2022/02/24 09:24:00;;;;;;;;;;;11.20;99.90;;;;;;5055535;28;19963;-85
2022/02/24 09:26:25;;;;;;;;;;;11.30;99.90;;;;;;5044962;28;19943;-84
2022/02/24 09:28:51;;;;;;;;;;;11.40;99.90;;;;;;5058172;28;20377;-85
2022/02/24 09:31:16;;;;;;;;;;;11.50;99.90;;;;;;5054033;28;20317;-84
2022/02/24 09:33:42;;;;;;;;;;;11.50;99.90;;;;;;5054704;28;19920;-84
2022/02/24 09:36:08;;;;;;;;;;;11.40;99.90;;;;;;5060629;28;19913;-83
2022/02/24 09:38:34;;;;;;;;;;;11.30;99.90;;;;;;5059581;28;19956;-84
2022/02/24 09:40:59;;;;;;;;;;;11.40;99.90;;;;;;5057069;28;19913;-84
2022/02/24 09:43:31;;;;;;;;;;;11.50;99.90;;;;;;5056976;28;19928;-85
2022/02/24 09:45:58;;;;;;;;;;;11.50;99.90;;;;;;5057547;28;20529;-85
2022/02/24 09:48:28;;;;;;;;;;;11.60;99.90;;;;;;5055127;28;19917;-84
2022/02/24 09:50:54;;;;;;;;;;;11.80;99.90;;;;;;5054193;28;19923;-84
2022/02/24 09:53:20;;;;;;;;;;;12.00;99.90;;;;;;5051624;28;19913;-84
2022/02/24 09:55:46;;;;;;;;;;;12.20;99.90;;;;;;5047267;28;19913;-85
2022/02/24 09:58:11;;;;;;;;;;;13.20;99.90;;;;;;5051055;28;20016;-85
2022/02/24 10:00:37;;;;;;;;;;;16.00;99.90;;;;;;5050247;28;20340;-86
2022/02/24 10:03:22;;;;;;;;;;;18.60;99.90;;;;;;5039541;28;19920;-86
2022/02/24 10:05:47;;;;;;;;;;;20.50;99.90;;;;;;5047282;28;19999;-85
2022/02/24 10:08:13;;;;;;;;;;;20.40;99.90;;;;;;5052466;28;19948;-85
2022/02/24 10:10:39;;;;;;;;;;;20.60;99.90;;;;;;5047578;28;19932;-85
2022/02/24 10:13:08;;;;;;;;;;;21.40;99.90;;;;;;5050234;28;19920;-85
2022/02/24 10:15:44;;;;;;;;;;;21.70;99.90;;;;;;5054674;28;20284;-85
2022/02/24 10:18:11;;;;;;;;;;;21.10;99.90;;;;;;5052796;28;19995;-85
2022/02/24 10:20:36;;;;;;;;;;;22.20;99.90;;;;;;5054015;28;20015;-85
2022/02/24 10:23:02;;;;;;;;;;;22.10;99.90;;;;;;5050686;28;19931;-85
2022/02/24 10:25:27;;;;;;;;;;;22.30;99.90;;;;;;5047925;28;19916;-84
2022/02/24 10:27:53;;;;;;;;;;;22.10;99.90;;;;;;5052296;28;19917;-84
2022/02/24 10:30:19;;;;;;;;;;;22.10;99.90;;;;;;5054992;28;19916;-84
2022/02/24 10:32:55;;;;;;;;;;;23.00;99.90;;;;;;5050688;28;19913;-84
2022/02/24 10:35:22;;;;;;;;;;;23.00;99.90;;;;;;5051368;28;20365;-85
2022/02/24 10:38:00;;;;;;;;;;;22.00;99.90;;;;;;5054640;28;20411;-84
2022/02/24 10:40:27;;;;;;;;;;;21.30;99.90;;;;;;5046830;28;19959;-84
2022/02/24 10:42:52;;;;;;;;;;;20.40;99.90;;;;;;5050403;28;20677;-84
2022/02/24 10:45:18;;;;;;;;;;;19.40;99.90;;;;;;5053946;28;20004;-84
2022/02/24 10:48:00;;;;;;;;;;;19.20;99.90;;;;;;5050939;28;19920;-84
2022/02/24 10:50:44;;;;;;;;;;;19.30;99.90;;;;;;5060426;28;20365;-84
2022/02/24 10:53:10;;;;;;;;;;;18.90;99.90;;;;;;5053877;28;19921;-85
2022/02/24 10:55:54;;;;;;;;;;;20.50;99.90;;;;;;5053013;28;19962;-83
2022/02/24 10:58:20;;;;;;;;;;;19.50;99.90;;;;;;5053538;28;19913;-83
2022/02/24 11:00:45;;;;;;;;;;;17.80;99.90;;;;;;5057301;28;19913;-84
2022/02/24 11:03:11;;;;;;;;;;;16.80;99.90;;;;;;5055434;28;20281;-82
2022/02/24 11:05:37;;;;;;;;;;;16.10;99.90;;;;;;5056038;28;19913;-83
2022/02/24 11:08:04;;;;;;;;;;;15.60;99.90;;;;;;5056134;28;19931;-84
2022/02/24 11:10:30;;;;;;;;;;;15.10;99.90;;;;;;5053419;28;19924;-83
2022/02/24 11:12:58;;;;;;;;;;;14.70;99.90;;;;;;5056836;28;19912;-84
2022/02/24 11:15:24;;;;;;;;;;;14.30;99.90;;;;;;5056122;28;19932;-83
2022/02/24 11:17:50;;;;;;;;;;;14.20;99.90;;;;;;5050031;28;19974;-83
2022/02/24 11:20:15;;;;;;;;;;;14.00;99.90;;;;;;5055100;28;19920;-82
2022/02/24 11:22:41;;;;;;;;;;;13.80;99.90;;;;;;5054544;28;19912;-83
2022/02/24 11:25:08;;;;;;;;;;;13.60;99.90;;;;;;5048631;28;19924;-84
2022/02/24 11:27:36;;;;;;;;;;;13.50;99.90;;;;;;5048773;28;19921;-82
2022/02/24 11:30:04;;;;;;;;;;;13.50;99.90;;;;;;5055992;28;20483;-81
2022/02/24 11:32:30;;;;;;;;;;;13.50;99.90;;;;;;5070412;28;19917;-84
2022/02/24 11:34:56;;;;;;;;;;;13.60;99.90;;;;;;5053459;28;19913;-85
2022/02/24 11:37:21;;;;;;;;;;;13.70;99.90;;;;;;5050994;28;19967;-83
2022/02/24 11:39:47;;;;;;;;;;;13.90;99.90;;;;;;5055967;28;19919;-83
2022/02/24 11:42:22;;;;;;;;;;;14.10;99.90;;;;;;5050288;28;19925;-83
2022/02/24 11:44:47;;;;;;;;;;;15.30;99.90;;;;;;5043349;28;19921;-84
2022/02/24 11:47:13;;;;;;;;;;;17.10;99.90;;;;;;5048618;28;19917;-84
2022/02/24 11:49:53;;;;;;;;;;;18.60;99.90;;;;;;5050819;28;19917;-84
2022/02/24 11:52:20;;;;;;;;;;;20.00;99.90;;;;;;5050747;28;20392;-84
2022/02/24 11:54:46;;;;;;;;;;;20.70;99.90;;;;;;5051955;28;19915;-84
2022/02/24 11:57:23;;;;;;;;;;;19.70;99.90;;;;;;5053711;28;20355;-84
2022/02/24 11:59:52;;;;;;;;;;;18.50;99.90;;;;;;5056719;28;19913;-83
2022/02/24 12:02:18;;;;;;;;;;;17.70;99.90;;;;;;5069121;28;19987;-84
2022/02/24 12:04:46;;;;;;;;;;;16.70;99.90;;;;;;5047914;28;20385;-85
2022/02/24 12:07:14;;;;;;;;;;;16.10;99.90;;;;;;5058260;28;19913;-84
2022/02/24 12:09:40;;;;;;;;;;;15.60;99.90;;;;;;5057260;28;19959;-84
2022/02/24 12:12:10;;;;;;;;;;;15.10;99.90;;;;;;5061523;28;20376;-84
2022/02/24 12:14:35;;;;;;;;;;;14.70;99.90;;;;;;5063377;28;19913;-83
2022/02/24 12:17:00;;;;;;;;;;;14.50;99.90;;;;;;5061819;28;20273;-83
2022/02/24 12:19:38;;;;;;;;;;;14.30;99.90;;;;;;5061481;28;19963;-85
2022/02/24 12:22:14;;;;;;;;;;;14.30;99.90;;;;;;5062513;28;19924;-83
2022/02/24 12:24:41;;;;;;;;;;;14.20;99.90;;;;;;5059042;28;19929;-84
2022/02/24 12:27:26;;;;;;;;;;;14.40;99.90;;;;;;5063984;28;19940;-84
2022/02/24 12:30:16;;;;;;;;;;;14.40;99.90;;;;;;5056575;28;19916;-85
2022/02/24 12:33:00;;;;;;;;;;;14.80;99.90;;;;;;5056205;28;19954;-83
2022/02/24 12:35:27;;;;;;;;;;;15.10;99.90;;;;;;5051063;28;19916;-82
2022/02/24 12:37:53;;;;;;;;;;;15.20;99.90;;;;;;5058867;28;20447;-84
2022/02/24 12:40:25;;;;;;;;;;;15.20;99.90;;;;;;5051457;28;19913;-83
2022/02/24 12:42:50;;;;;;;;;;;15.70;99.90;;;;;;5058131;28;19950;-84
2022/02/24 12:45:20;;;;;;;;;;;15.90;99.90;;;;;;5054517;28;19956;-84
2022/02/24 12:47:49;;;;;;;;;;;16.20;99.90;;;;;;5052719;28;19912;-84
2022/02/24 12:50:25;;;;;;;;;;;16.60;99.90;;;;;;5059473;28;19916;-85
2022/02/24 12:52:51;;;;;;;;;;;17.30;99.90;;;;;;5052118;28;19913;-84
2022/02/24 12:55:17;;;;;;;;;;;17.50;99.90;;;;;;5053166;28;20396;-84
2022/02/24 12:57:43;;;;;;;;;;;18.00;99.90;;;;;;5055539;28;19923;-85
2022/02/24 13:00:10;;;;;;;;;;;17.90;99.90;;;;;;5059473;28;19964;-84
2022/02/24 13:02:37;;;;;;;;;;;17.30;99.90;;;;;;5052981;28;20020;-84
2022/02/24 13:05:03;;;;;;;;;;;17.90;99.90;;;;;;5060241;28;19921;-84
2022/02/24 13:10:13;;;;;;;;;;;18.60;99.90;;;;;;5052622;28;19932;-84
2022/02/24 13:12:42;;;;;;;;;;;19.00;99.90;;;;;;5056187;28;19913;-84
2022/02/24 13:15:09;;;;;;;;;;;19.50;99.90;;;;;;5058654;28;20042;-84
2022/02/24 13:17:34;;;;;;;;;;;19.80;99.90;;;;;;5057517;28;19920;-85
2022/02/24 13:20:00;;;;;;;;;;;20.10;99.90;;;;;;5052396;28;19913;-84
2022/02/24 13:22:25;;;;;;;;;;;20.10;99.90;;;;;;5068275;28;19913;-84
2022/02/24 13:24:51;;;;;;;;;;;19.80;99.90;;;;;;5048944;28;20036;-84
2022/02/24 13:27:21;;;;;;;;;;;19.60;99.90;;;;;;5054858;28;19913;-83
2022/02/24 13:29:48;;;;;;;;;;;19.70;99.90;;;;;;5050212;28;20305;-85
2022/02/24 13:32:13;;;;;;;;;;;20.00;99.90;;;;;;5046737;28;20284;-84
2022/02/24 13:34:40;;;;;;;;;;;19.70;99.90;;;;;;5055630;28;19944;-84
2022/02/24 13:37:06;;;;;;;;;;;19.60;99.90;;;;;;5058390;28;19920;-85
2022/02/24 13:39:32;;;;;;;;;;;19.40;99.90;;;;;;5043813;28;19913;-84
2022/02/24 13:41:59;;;;;;;;;;;19.50;99.90;;;;;;5054626;28;19920;-84
2022/02/24 13:44:28;;;;;;;;;;;19.30;99.90;;;;;;5051781;28;19913;-83
2022/02/24 13:47:04;;;;;;;;;;;19.10;99.90;;;;;;5070322;28;19920;-85
2022/02/24 13:49:37;;;;;;;;;;;19.20;99.90;;;;;;5068862;28;20468;-84
2022/02/24 13:52:03;;;;;;;;;;;19.00;99.90;;;;;;5057427;28;19966;-82
2022/02/24 13:54:29;;;;;;;;;;;18.70;99.90;;;;;;5056546;28;19912;-84
2022/02/24 13:56:55;;;;;;;;;;;18.10;99.90;;;;;;5051709;28;19963;-84
2022/02/24 13:59:21;;;;;;;;;;;17.60;99.90;;;;;;5051732;28;19913;-84
2022/02/24 14:01:49;;;;;;;;;;;16.80;99.90;;;;;;5054755;28;19912;-85
2022/02/24 14:04:16;;;;;;;;;;;16.30;99.90;;;;;;5051008;28;19913;-84
2022/02/24 14:06:42;;;;;;;;;;;15.90;99.90;;;;;;5057838;28;19980;-84
2022/02/24 14:09:15;;;;;;;;;;;15.50;99.90;;;;;;5056176;28;19920;-85
2022/02/24 14:11:43;;;;;;;;;;;15.20;99.90;;;;;;5059619;28;19920;-83
2022/02/24 14:14:08;;;;;;;;;;;14.80;99.90;;;;;;5051086;28;19935;-84
2022/02/24 14:16:34;;;;;;;;;;;14.60;99.90;;;;;;5054571;28;19912;-83
2022/02/24 14:18:59;;;;;;;;;;;14.30;99.90;;;;;;5053333;28;19996;-82
2022/02/24 14:21:25;;;;;;;;;;;14.10;99.90;;;;;;5050063;28;19913;-81
2022/02/24 14:23:50;;;;;;;;;;;13.90;99.90;;;;;;5050991;28;20345;-83